PWSweather.com
Personal Weather Stations
Station Observations
CANDIOTINO
Barrio Candioti Norte, Santa FeAR 3000

Barrio Candioti NorteSanta FeAR 3000

Lat: -31.632778, Lon: -60.695556

Elevation: 69

Station Type: WH-1081

http://www.eltiempoensantafe.com.ar

High Low Average
Temperature 101.5°F38.6°C 80.6°F27.0°C 90.0°F32.2°C
Dew Point 74.5°F23.6°C 64.3°F17.9°C 70.8°F21.6°C
Winds 11.4 mph 18.3 kmh Calm Calm 3.0 mph E4.8 kmh E
Wind Gusts 16.8 mph27.0 kmh 2.2 mph3.5 kmh 8.0 mph12.9 kmh
Humidity 69% 32% 55%
Pressure 29.73 in1006.8 mb 29.60 in1002.4 mb -
Precipitation 0.00 in0.0 mm - -
Hour Temp Dew Point Humidity Winds Wind Gusts Pressure Precip Precip Rate Daily Precip Total
12:00 AM 85.8°F29.9°C 74.5°F23.6°C 69% 2.2 mph N3.5 kmh N 5.4 mph8.7 kmh 29.68 in1005.1 mb 0.00 in0.0 mm 0.00 in0.0 mm 0.00 in0.0 mm
12:15 AM 85.3°F29.6°C 73.6°F23.1°C 68% 1.6 mph N2.6 kmh N 6.0 mph9.7 kmh 29.68 in1005.1 mb 0.00 in0.0 mm 0.00 in0.0 mm 0.00 in0.0 mm
12:30 AM 85.3°F29.6°C 72.7°F22.6°C 66% 2.2 mph NNE3.5 kmh NNE 5.4 mph8.7 kmh 29.68 in1005.1 mb 0.00 in0.0 mm 0.00 in0.0 mm 0.00 in0.0 mm
12:45 AM 84.9°F29.4°C 72.8°F22.7°C 67% 2.2 mph N3.5 kmh N 4.5 mph7.2 kmh 29.68 in1005.1 mb 0.00 in0.0 mm 0.00 in0.0 mm 0.00 in0.0 mm
01:00 AM 84.4°F29.1°C 72.7°F22.6°C 68% 3.1 mph N5.0 kmh N 9.2 mph14.8 kmh 29.68 in1005.1 mb 0.00 in0.0 mm 0.00 in0.0 mm 0.00 in0.0 mm
01:15 AM 84.2°F29.0°C 72.6°F22.6°C 68% 2.2 mph N3.5 kmh N 6.9 mph11.1 kmh 29.68 in1005.1 mb 0.00 in0.0 mm 0.00 in0.0 mm 0.00 in0.0 mm
01:30 AM 83.8°F28.8°C 71.8°F22.1°C 67% 3.1 mph N5.0 kmh N 7.6 mph12.2 kmh 29.69 in1005.4 mb 0.00 in0.0 mm 0.00 in0.0 mm 0.00 in0.0 mm
01:45 AM 83.8°F28.8°C 70.9°F21.6°C 65% 2.2 mph N3.5 kmh N 6.9 mph11.1 kmh 29.69 in1005.4 mb 0.00 in0.0 mm 0.00 in0.0 mm 0.00 in0.0 mm
02:00 AM 83.5°F28.6°C 70.1°F21.2°C 64% 1.6 mph N2.6 kmh N 6.0 mph9.7 kmh 29.69 in1005.4 mb 0.00 in0.0 mm 0.00 in0.0 mm 0.00 in0.0 mm
02:15 AM 83.1°F28.4°C 70.2°F21.2°C 65% 2.2 mph N3.5 kmh N 9.2 mph14.8 kmh 29.69 in1005.4 mb 0.00 in0.0 mm 0.00 in0.0 mm 0.00 in0.0 mm
02:30 AM 82.9°F28.3°C 70.0°F21.1°C 65% 3.1 mph NNE5.0 kmh NNE 6.9 mph11.1 kmh 29.69 in1005.4 mb 0.00 in0.0 mm 0.00 in0.0 mm 0.00 in0.0 mm
02:45 AM 83.3°F28.5°C 69.4°F20.8°C 63% 3.1 mph N5.0 kmh N 6.9 mph11.1 kmh 29.68 in1005.1 mb 0.00 in0.0 mm 0.00 in0.0 mm 0.00 in0.0 mm
03:00 AM 82.9°F28.3°C 70.0°F21.1°C 65% 5.4 mph N8.7 kmh N 8.3 mph13.4 kmh 29.68 in1005.1 mb 0.00 in0.0 mm 0.00 in0.0 mm 0.00 in0.0 mm
03:15 AM 82.6°F28.1°C 70.1°F21.2°C 66% 1.6 mph NNW2.6 kmh NNW 6.0 mph9.7 kmh 29.68 in1005.1 mb 0.00 in0.0 mm 0.00 in0.0 mm 0.00 in0.0 mm
03:30 AM 82.0°F27.8°C 69.6°F20.9°C 66% 2.2 mph NNW3.5 kmh NNW 5.4 mph8.7 kmh 29.68 in1005.1 mb 0.00 in0.0 mm 0.00 in0.0 mm 0.00 in0.0 mm
03:45 AM 82.2°F27.9°C 69.3°F20.7°C 65% 3.1 mph N5.0 kmh N 6.9 mph11.1 kmh 29.68 in1005.1 mb 0.00 in0.0 mm 0.00 in0.0 mm 0.00 in0.0 mm
04:00 AM 82.0°F27.8°C 69.2°F20.7°C 65% 3.1 mph N5.0 kmh N 6.0 mph9.7 kmh 29.68 in1005.1 mb 0.00 in0.0 mm 0.00 in0.0 mm 0.00 in0.0 mm
04:15 AM 81.9°F27.7°C 69.0°F20.6°C 65% 2.2 mph NNW3.5 kmh NNW 6.0 mph9.7 kmh 29.68 in1005.1 mb 0.00 in0.0 mm 0.00 in0.0 mm 0.00 in0.0 mm
04:30 AM 81.5°F27.5°C 68.7°F20.4°C 65% 1.6 mph N2.6 kmh N 3.8 mph6.1 kmh 29.68 in1005.1 mb 0.00 in0.0 mm 0.00 in0.0 mm 0.00 in0.0 mm
04:45 AM 81.3°F27.4°C 68.5°F20.3°C 65% 1.6 mph NNW2.6 kmh NNW 4.5 mph7.2 kmh 29.69 in1005.4 mb 0.00 in0.0 mm 0.00 in0.0 mm 0.00 in0.0 mm
05:00 AM 81.3°F27.4°C 68.5°F20.3°C 65% 3.1 mph N5.0 kmh N 3.8 mph6.1 kmh 29.69 in1005.4 mb 0.00 in0.0 mm 0.00 in0.0 mm 0.00 in0.0 mm
05:15 AM 81.1°F27.3°C 68.8°F20.4°C 66% 1.6 mph NE2.6 kmh NE 3.8 mph6.1 kmh 29.69 in1005.4 mb 0.00 in0.0 mm 0.00 in0.0 mm 0.00 in0.0 mm
05:30 AM 81.0°F27.2°C 68.6°F20.3°C 66% 1.6 mph NE2.6 kmh NE 3.8 mph6.1 kmh 29.70 in1005.8 mb 0.00 in0.0 mm 0.00 in0.0 mm 0.00 in0.0 mm
05:45 AM 80.8°F27.1°C 68.8°F20.4°C 67% 2.2 mph ENE3.5 kmh ENE 3.8 mph6.1 kmh 29.70 in1005.8 mb 0.00 in0.0 mm 0.00 in0.0 mm 0.00 in0.0 mm
06:00 AM 80.8°F27.1°C 68.8°F20.4°C 67% 0.7 mph NE1.1 kmh NE 3.1 mph5.0 kmh 29.70 in1005.8 mb 0.00 in0.0 mm 0.00 in0.0 mm 0.00 in0.0 mm
06:15 AM 80.8°F27.1°C 69.3°F20.7°C 68% Calm Calm 3.8 mph6.1 kmh 29.70 in1005.8 mb 0.00 in0.0 mm 0.00 in0.0 mm 0.00 in0.0 mm
06:30 AM 80.8°F27.1°C 69.3°F20.7°C 68% 0.7 mph NNE1.1 kmh NNE 3.1 mph5.0 kmh 29.70 in1005.8 mb 0.00 in0.0 mm 0.00 in0.0 mm 0.00 in0.0 mm
06:45 AM 80.6°F27.0°C 68.2°F20.1°C 66% 1.6 mph NNE2.6 kmh NNE 3.1 mph5.0 kmh 29.70 in1005.8 mb 0.00 in0.0 mm 0.00 in0.0 mm 0.00 in0.0 mm
07:00 AM 80.8°F27.1°C 68.4°F20.2°C 66% 0.7 mph N1.1 kmh N 4.5 mph7.2 kmh 29.70 in1005.8 mb 0.00 in0.0 mm 0.00 in0.0 mm 0.00 in0.0 mm
07:15 AM 82.2°F27.9°C 70.7°F21.5°C 68% 0.7 mph NE1.1 kmh NE 3.1 mph5.0 kmh 29.71 in1006.1 mb 0.00 in0.0 mm 0.00 in0.0 mm 0.00 in0.0 mm
07:30 AM 85.3°F29.6°C 72.2°F22.3°C 65% 0.7 mph NNE1.1 kmh NNE 2.2 mph3.5 kmh 29.71 in1006.1 mb 0.00 in0.0 mm 0.00 in0.0 mm 0.00 in0.0 mm
07:45 AM 86.0°F30.0°C 72.0°F22.2°C 63% 0.7 mph NE1.1 kmh NE 5.4 mph8.7 kmh 29.72 in1006.4 mb 0.00 in0.0 mm 0.00 in0.0 mm 0.00 in0.0 mm
08:00 AM 88.3°F31.3°C 70.2°F21.2°C 55% 0.7 mph NE1.1 kmh NE 4.5 mph7.2 kmh 29.72 in1006.4 mb 0.00 in0.0 mm 0.00 in0.0 mm 0.00 in0.0 mm
08:15 AM 87.4°F30.8°C 69.9°F21.1°C 56% 3.1 mph N5.0 kmh N 6.0 mph9.7 kmh 29.72 in1006.4 mb 0.00 in0.0 mm 0.00 in0.0 mm 0.00 in0.0 mm
08:30 AM 87.8°F31.0°C 69.7°F20.9°C 55% 1.6 mph NNE2.6 kmh NNE 6.0 mph9.7 kmh 29.72 in1006.4 mb 0.00 in0.0 mm 0.00 in0.0 mm 0.00 in0.0 mm
08:45 AM 88.2°F31.2°C 69.5°F20.8°C 54% 3.1 mph N5.0 kmh N 6.0 mph9.7 kmh 29.73 in1006.8 mb 0.00 in0.0 mm 0.00 in0.0 mm 0.00 in0.0 mm
09:00 AM 88.2°F31.2°C 69.5°F20.8°C 54% 2.2 mph N3.5 kmh N 8.3 mph13.4 kmh 29.72 in1006.4 mb 0.00 in0.0 mm 0.00 in0.0 mm 0.00 in0.0 mm
09:15 AM 90.0°F32.2°C 69.5°F20.8°C 51% 0.7 mph NNE1.1 kmh NNE 6.9 mph11.1 kmh 29.72 in1006.4 mb 0.00 in0.0 mm 0.00 in0.0 mm 0.00 in0.0 mm
09:30 AM 91.4°F33.0°C 70.8°F21.6°C 51% 2.2 mph NE3.5 kmh NE 7.6 mph12.2 kmh 29.72 in1006.4 mb 0.00 in0.0 mm 0.00 in0.0 mm 0.00 in0.0 mm
09:45 AM 91.4°F33.0°C 69.6°F20.9°C 49% 3.1 mph NNE5.0 kmh NNE 6.0 mph9.7 kmh 29.71 in1006.1 mb 0.00 in0.0 mm 0.00 in0.0 mm 0.00 in0.0 mm
10:00 AM 91.2°F32.9°C 70.6°F21.4°C 51% 1.6 mph N2.6 kmh N 8.3 mph13.4 kmh 29.72 in1006.4 mb 0.00 in0.0 mm 0.00 in0.0 mm 0.00 in0.0 mm
10:15 AM 92.3°F33.5°C 71.0°F21.7°C 50% 4.5 mph N7.2 kmh N 8.3 mph13.4 kmh 29.71 in1006.1 mb 0.00 in0.0 mm 0.00 in0.0 mm 0.00 in0.0 mm
10:30 AM 93.4°F34.1°C 70.8°F21.6°C 48% 1.6 mph NNE2.6 kmh NNE 8.3 mph13.4 kmh 29.72 in1006.4 mb 0.00 in0.0 mm 0.00 in0.0 mm 0.00 in0.0 mm
10:45 AM 93.7°F34.3°C 70.5°F21.4°C 47% 6.9 mph N11.1 kmh N 9.8 mph15.8 kmh 29.71 in1006.1 mb 0.00 in0.0 mm 0.00 in0.0 mm 0.00 in0.0 mm
11:00 AM 95.2°F35.1°C 72.5°F22.5°C 48% 5.4 mph NE8.7 kmh NE 9.2 mph14.8 kmh 29.71 in1006.1 mb 0.00 in0.0 mm 0.00 in0.0 mm 0.00 in0.0 mm
11:15 AM 95.9°F35.5°C 72.5°F22.5°C 47% 3.8 mph ENE6.1 kmh ENE 6.9 mph11.1 kmh 29.71 in1006.1 mb 0.00 in0.0 mm 0.00 in0.0 mm 0.00 in0.0 mm
11:30 AM 96.4°F35.8°C 73.0°F22.8°C 47% 3.1 mph ENE5.0 kmh ENE 6.0 mph9.7 kmh 29.71 in1006.1 mb 0.00 in0.0 mm 0.00 in0.0 mm 0.00 in0.0 mm
11:45 AM 95.7°F35.4°C 73.0°F22.8°C 48% 3.1 mph NE5.0 kmh NE 10.7 mph17.2 kmh 29.70 in1005.8 mb 0.00 in0.0 mm 0.00 in0.0 mm 0.00 in0.0 mm
12:00 PM 95.5°F35.3°C 72.2°F22.3°C 47% 4.5 mph NE7.2 kmh NE 11.4 mph18.3 kmh 29.70 in1005.8 mb 0.00 in0.0 mm 0.00 in0.0 mm 0.00 in0.0 mm
12:15 PM 95.7°F35.4°C 71.7°F22.1°C 46% 4.5 mph ENE7.2 kmh ENE 13.6 mph21.9 kmh 29.69 in1005.4 mb 0.00 in0.0 mm 0.00 in0.0 mm 0.00 in0.0 mm
12:30 PM 95.5°F35.3°C 70.9°F21.6°C 45% 4.5 mph NE7.2 kmh NE 10.7 mph17.2 kmh 29.69 in1005.4 mb 0.00 in0.0 mm 0.00 in0.0 mm 0.00 in0.0 mm
12:45 PM 96.4°F35.8°C 71.7°F22.1°C 45% 4.5 mph NE7.2 kmh NE 9.8 mph15.8 kmh 29.69 in1005.4 mb 0.00 in0.0 mm 0.00 in0.0 mm 0.00 in0.0 mm
01:00 PM 97.9°F36.6°C 71.7°F22.1°C 43% 6.9 mph ENE11.1 kmh ENE 9.2 mph14.8 kmh 29.69 in1005.4 mb 0.00 in0.0 mm 0.00 in0.0 mm 0.00 in0.0 mm
01:15 PM 97.9°F36.6°C 71.0°F21.7°C 42% 3.8 mph E6.1 kmh E 11.4 mph18.3 kmh 29.69 in1005.4 mb 0.00 in0.0 mm 0.00 in0.0 mm 0.00 in0.0 mm
01:30 PM 97.3°F36.3°C 71.2°F21.8°C 43% 2.2 mph NE3.5 kmh NE 9.8 mph15.8 kmh 29.68 in1005.1 mb 0.00 in0.0 mm 0.00 in0.0 mm 0.00 in0.0 mm
01:45 PM 98.4°F36.9°C 68.5°F20.3°C 38% 6.0 mph NNE9.7 kmh NNE 9.2 mph14.8 kmh 29.68 in1005.1 mb 0.00 in0.0 mm 0.00 in0.0 mm 0.00 in0.0 mm
02:00 PM 99.3°F37.4°C 64.3°F17.9°C 32% 9.2 mph N14.8 kmh N 14.5 mph23.3 kmh 29.68 in1005.1 mb 0.00 in0.0 mm 0.00 in0.0 mm 0.00 in0.0 mm
02:15 PM 98.4°F36.9°C 66.1°F18.9°C 35% 4.5 mph NNW7.2 kmh NNW 15.2 mph24.5 kmh 29.68 in1005.1 mb 0.00 in0.0 mm 0.00 in0.0 mm 0.00 in0.0 mm
02:30 PM 98.2°F36.8°C 65.1°F18.4°C 34% 9.8 mph N15.8 kmh N 15.9 mph25.6 kmh 29.67 in1004.7 mb 0.00 in0.0 mm 0.00 in0.0 mm 0.00 in0.0 mm
02:45 PM 98.4°F36.9°C 66.9°F19.4°C 36% 11.4 mph NNW18.3 kmh NNW 14.5 mph23.3 kmh 29.67 in1004.7 mb 0.00 in0.0 mm 0.00 in0.0 mm 0.00 in0.0 mm
03:00 PM 99.1°F37.3°C 65.9°F18.8°C 34% 6.9 mph N11.1 kmh N 14.5 mph23.3 kmh 29.66 in1004.4 mb 0.00 in0.0 mm 0.00 in0.0 mm 0.00 in0.0 mm
03:15 PM 99.1°F37.3°C 65.9°F18.8°C 34% 6.0 mph N9.7 kmh N 16.8 mph27.0 kmh 29.65 in1004.1 mb 0.00 in0.0 mm 0.00 in0.0 mm 0.00 in0.0 mm
03:30 PM 101.5°F38.6°C 71.2°F21.8°C 38% 4.5 mph NE7.2 kmh NE 13.6 mph21.9 kmh 29.64 in1003.7 mb 0.00 in0.0 mm 0.00 in0.0 mm 0.00 in0.0 mm
03:45 PM 100.2°F37.9°C 69.3°F20.7°C 37% 6.0 mph ENE9.7 kmh ENE 13.0 mph20.9 kmh 29.63 in1003.4 mb 0.00 in0.0 mm 0.00 in0.0 mm 0.00 in0.0 mm
04:00 PM 98.8°F37.1°C 69.6°F20.9°C 39% 6.9 mph E11.1 kmh E 14.5 mph23.3 kmh 29.63 in1003.4 mb 0.00 in0.0 mm 0.00 in0.0 mm 0.00 in0.0 mm
04:15 PM 98.4°F36.9°C 70.7°F21.5°C 41% 6.9 mph E11.1 kmh E 12.1 mph19.5 kmh 29.62 in1003.0 mb 0.00 in0.0 mm 0.00 in0.0 mm 0.00 in0.0 mm
04:30 PM 98.4°F36.9°C 71.5°F21.9°C 42% 5.4 mph ENE8.7 kmh ENE 11.4 mph18.3 kmh 29.62 in1003.0 mb 0.00 in0.0 mm 0.00 in0.0 mm 0.00 in0.0 mm
04:45 PM 99.1°F37.3°C 70.7°F21.5°C 40% 5.4 mph ENE8.7 kmh ENE 13.0 mph20.9 kmh 29.62 in1003.0 mb 0.00 in0.0 mm 0.00 in0.0 mm 0.00 in0.0 mm
05:00 PM 98.1°F36.7°C 71.1°F21.7°C 42% 5.4 mph E8.7 kmh E 13.6 mph21.9 kmh 29.63 in1003.4 mb 0.00 in0.0 mm 0.00 in0.0 mm 0.00 in0.0 mm
05:15 PM 99.1°F37.3°C 71.4°F21.9°C 41% 5.4 mph NE8.7 kmh NE 10.7 mph17.2 kmh 29.62 in1003.0 mb 0.00 in0.0 mm 0.00 in0.0 mm 0.00 in0.0 mm
05:30 PM 98.6°F37.0°C 70.9°F21.6°C 41% 5.4 mph E8.7 kmh E 13.6 mph21.9 kmh 29.61 in1002.7 mb 0.00 in0.0 mm 0.00 in0.0 mm 0.00 in0.0 mm
05:45 PM 98.6°F37.0°C 70.9°F21.6°C 41% 2.2 mph ENE3.5 kmh ENE 12.1 mph19.5 kmh 29.61 in1002.7 mb 0.00 in0.0 mm 0.00 in0.0 mm 0.00 in0.0 mm
06:00 PM 99.1°F37.3°C 71.4°F21.9°C 41% 3.1 mph NE5.0 kmh NE 9.2 mph14.8 kmh 29.61 in1002.7 mb 0.00 in0.0 mm 0.00 in0.0 mm 0.00 in0.0 mm
06:15 PM 99.5°F37.5°C 71.7°F22.1°C 41% 3.8 mph NE6.1 kmh NE 9.8 mph15.8 kmh 29.61 in1002.7 mb 0.00 in0.0 mm 0.00 in0.0 mm 0.00 in0.0 mm
06:30 PM 98.1°F36.7°C 71.8°F22.1°C 43% 5.4 mph E8.7 kmh E 12.1 mph19.5 kmh 29.61 in1002.7 mb 0.00 in0.0 mm 0.00 in0.0 mm 0.00 in0.0 mm
06:45 PM 97.0°F36.1°C 70.9°F21.6°C 43% 4.5 mph ENE7.2 kmh ENE 12.1 mph19.5 kmh 29.61 in1002.7 mb 0.00 in0.0 mm 0.00 in0.0 mm 0.00 in0.0 mm
07:00 PM 95.7°F35.4°C 71.1°F21.7°C 45% 3.1 mph NE5.0 kmh NE 15.2 mph24.5 kmh 29.61 in1002.7 mb 0.00 in0.0 mm 0.00 in0.0 mm 0.00 in0.0 mm
07:15 PM 95.5°F35.3°C 70.2°F21.2°C 44% 4.5 mph NE7.2 kmh NE 9.8 mph15.8 kmh 29.60 in1002.4 mb 0.00 in0.0 mm 0.00 in0.0 mm 0.00 in0.0 mm
07:30 PM 93.6°F34.2°C 71.0°F21.7°C 48% 3.8 mph NE6.1 kmh NE 9.8 mph15.8 kmh 29.61 in1002.7 mb 0.00 in0.0 mm 0.00 in0.0 mm 0.00 in0.0 mm
07:45 PM 90.7°F32.6°C 73.4°F23.0°C 57% 5.4 mph NE8.7 kmh NE 8.3 mph13.4 kmh 29.62 in1003.0 mb 0.00 in0.0 mm 0.00 in0.0 mm 0.00 in0.0 mm
08:00 PM 89.6°F32.0°C 72.9°F22.7°C 58% 3.1 mph NE5.0 kmh NE 9.2 mph14.8 kmh 29.62 in1003.0 mb 0.00 in0.0 mm 0.00 in0.0 mm 0.00 in0.0 mm
08:15 PM 88.9°F31.6°C 73.3°F22.9°C 60% 2.2 mph ENE3.5 kmh ENE 9.2 mph14.8 kmh 29.62 in1003.0 mb 0.00 in0.0 mm 0.00 in0.0 mm 0.00 in0.0 mm
08:30 PM 88.5°F31.4°C 72.4°F22.4°C 59% 3.8 mph ENE6.1 kmh ENE 9.2 mph14.8 kmh 29.63 in1003.4 mb 0.00 in0.0 mm 0.00 in0.0 mm 0.00 in0.0 mm
08:45 PM 88.3°F31.3°C 72.3°F22.4°C 59% 3.1 mph NE5.0 kmh NE 10.7 mph17.2 kmh 29.63 in1003.4 mb 0.00 in0.0 mm 0.00 in0.0 mm 0.00 in0.0 mm
09:00 PM 88.0°F31.1°C 71.9°F22.2°C 59% 3.8 mph NE6.1 kmh NE 9.8 mph15.8 kmh 29.64 in1003.7 mb 0.00 in0.0 mm 0.00 in0.0 mm 0.00 in0.0 mm
09:15 PM 87.8°F31.0°C 72.7°F22.6°C 61% 2.2 mph NE3.5 kmh NE 9.8 mph15.8 kmh 29.63 in1003.4 mb 0.00 in0.0 mm 0.00 in0.0 mm 0.00 in0.0 mm
09:30 PM 87.4°F30.8°C 73.4°F23.0°C 63% 1.6 mph NE2.6 kmh NE 8.3 mph13.4 kmh 29.64 in1003.7 mb 0.00 in0.0 mm 0.00 in0.0 mm 0.00 in0.0 mm
09:45 PM 87.1°F30.6°C 73.5°F23.1°C 64% 3.8 mph NE6.1 kmh NE 6.9 mph11.1 kmh 29.65 in1004.1 mb 0.00 in0.0 mm 0.00 in0.0 mm 0.00 in0.0 mm
10:00 PM 86.9°F30.5°C 73.8°F23.2°C 65% 3.1 mph ENE5.0 kmh ENE 7.6 mph12.2 kmh 29.65 in1004.1 mb 0.00 in0.0 mm 0.00 in0.0 mm 0.00 in0.0 mm
10:15 PM 86.9°F30.5°C 73.8°F23.2°C 65% 0.7 mph NNE1.1 kmh NNE 7.6 mph12.2 kmh 29.65 in1004.1 mb 0.00 in0.0 mm 0.00 in0.0 mm 0.00 in0.0 mm
10:30 PM 87.1°F30.6°C 74.0°F23.3°C 65% 4.5 mph NE7.2 kmh NE 6.9 mph11.1 kmh 29.66 in1004.4 mb 0.00 in0.0 mm 0.00 in0.0 mm 0.00 in0.0 mm
10:45 PM 86.9°F30.5°C 73.3°F22.9°C 64% 2.2 mph NNE3.5 kmh NNE 6.0 mph9.7 kmh 29.66 in1004.4 mb 0.00 in0.0 mm 0.00 in0.0 mm 0.00 in0.0 mm
11:00 PM 86.7°F30.4°C 73.1°F22.8°C 64% 4.5 mph NNE7.2 kmh NNE 6.0 mph9.7 kmh 29.66 in1004.4 mb 0.00 in0.0 mm 0.00 in0.0 mm 0.00 in0.0 mm
11:15 PM 86.5°F30.3°C 73.0°F22.8°C 64% 3.1 mph NNE5.0 kmh NNE 6.0 mph9.7 kmh 29.65 in1004.1 mb 0.00 in0.0 mm 0.00 in0.0 mm 0.00 in0.0 mm
11:30 PM 86.5°F30.3°C 73.0°F22.8°C 64% 3.1 mph NE5.0 kmh NE 6.9 mph11.1 kmh 29.65 in1004.1 mb 0.00 in0.0 mm 0.00 in0.0 mm 0.00 in0.0 mm
11:45 PM 86.4°F30.2°C 73.3°F22.9°C 65% 3.1 mph NE5.0 kmh NE 7.6 mph12.2 kmh 29.65 in1004.1 mb 0.00 in0.0 mm 0.00 in0.0 mm 0.00 in0.0 mm